Time;durP1;ratioP1;P1;durP2;ratioP2;P2;SDS_P1;SDS_P2;PMS_P1;PMS_P2;Temp;Humidity;BMP_temperature;BMP_pressure;BME280_temperature;BME280_humidity;BME280_pressure;Samples;Min_cycle;Max_cycle;Signal;HPM_P1;HPM_P2
2023/04/15 00:02:14;;;;;;;16.95;6.75;;;;;;;7.42;79.15;100585.31;5026284;28;20029;-72
2023/04/15 00:04:39;;;;;;;;;;;;;;;7.48;77.80;100581.38;5023797;28;20057;-72
2023/04/15 00:07:04;;;;;;;20.55;6.72;;;;;;;7.32;78.96;100578.84;5019364;28;20348;-72
2023/04/15 00:09:30;;;;;;;19.42;6.45;;;;;;;7.24;80.63;100584.69;5021284;28;20060;-72
2023/04/15 00:11:55;;;;;;;16.77;6.28;;;;;;;7.21;80.68;100578.69;5014724;28;20022;-71
2023/04/15 00:14:20;;;;;;;19.02;6.30;;;;;;;7.15;81.67;100578.09;5019700;28;20036;-72
2023/04/15 00:16:46;;;;;;;19.63;6.40;;;;;;;7.12;80.09;100582.81;5015281;28;20042;-72
2023/04/15 00:19:11;;;;;;;16.42;6.45;;;;;;;7.06;81.88;100576.03;5020745;28;20508;-72
2023/04/15 00:21:37;;;;;;;16.20;5.80;;;;;;;7.02;81.81;100579.00;5015203;28;20061;-71
2023/04/15 00:24:02;;;;;;;17.27;6.10;;;;;;;6.99;81.75;100566.69;5016409;28;20029;-71
2023/04/15 00:26:27;;;;;;;17.13;6.72;;;;;;;6.95;82.68;100568.66;5015331;28;20018;-71
2023/04/15 00:28:53;;;;;;;19.73;6.35;;;;;;;6.93;82.87;100575.94;5013383;28;20083;-71
2023/04/15 00:31:18;;;;;;;21.33;7.22;;;;;;;6.88;82.70;100577.16;5020970;28;20036;-71
2023/04/15 00:33:43;;;;;;;21.50;6.63;;;;;;;6.83;81.59;100566.78;5026341;28;20063;-71
2023/04/15 00:36:10;;;;;;;19.58;6.45;;;;;;;6.79;83.36;100575.94;5021538;28;20466;-71
2023/04/15 00:38:38;;;;;;;17.35;6.05;;;;;;;6.72;83.78;100580.81;5021089;28;20484;-71
2023/04/15 00:41:03;;;;;;;19.25;7.45;;;;;;;6.69;83.67;100575.66;5019599;28;20038;-72
2023/04/15 00:43:29;;;;;;;21.10;7.43;;;;;;;6.64;84.41;100570.56;5019886;28;20028;-71
2023/04/15 00:45:56;;;;;;;19.90;7.32;;;;;;;6.61;84.61;100577.94;5020304;28;20036;-71
2023/04/15 00:48:22;;;;;;;21.20;7.97;;;;;;;6.56;84.69;100577.34;5018791;28;20037;-71
2023/04/15 00:50:48;;;;;;;18.15;7.20;;;;;;;6.52;85.05;100575.81;5020437;28;20028;-71
2023/04/15 00:53:13;;;;;;;22.73;7.95;;;;;;;6.49;85.04;100582.19;5019795;28;20021;-71
2023/04/15 00:55:38;;;;;;;20.80;6.88;;;;;;;6.46;84.91;100582.38;5020080;28;20347;-72
2023/04/15 00:58:04;;;;;;;19.00;7.40;;;;;;;6.42;84.99;100578.19;5019584;28;20037;-71
2023/04/15 01:00:30;;;;;;;20.08;7.55;;;;;;;6.39;85.44;100586.38;5011580;28;20036;-72
2023/04/15 01:02:55;;;;;;;20.13;7.57;;;;;;;6.34;85.90;100585.78;5022301;28;20532;-73
2023/04/15 01:05:21;;;;;;;19.63;7.80;;;;;;;6.33;85.41;100581.41;5023003;28;20060;-73
2023/04/15 01:07:47;;;;;;;18.35;7.78;;;;;;;6.28;86.05;100576.31;5023560;28;20046;-73
2023/04/15 01:10:13;;;;;;;20.05;8.32;;;;;;;6.21;86.29;100575.84;5019968;28;20037;-73
2023/04/15 01:12:38;;;;;;;23.10;9.07;;;;;;;6.19;86.39;100577.72;5013625;28;20048;-73
2023/04/15 01:15:04;;;;;;;22.67;8.50;;;;;;;6.17;85.56;100584.13;5021597;28;20473;-73
2023/04/15 01:17:30;;;;;;;22.30;9.02;;;;;;;6.14;84.97;100587.00;5021813;28;20131;-73
2023/04/15 01:19:56;;;;;;;19.33;7.78;;;;;;;6.15;85.23;100584.22;5020937;28;20037;-73
2023/04/15 01:22:23;;;;;;;21.95;8.82;;;;;;;6.14;84.72;100579.84;5016042;28;20087;-73
2023/04/15 01:25:08;;;;;;;20.17;8.23;;;;;;;6.14;84.80;100579.84;5016240;28;20025;-73
2023/04/15 01:27:35;;;;;;;20.85;8.73;;;;;;;6.09;84.78;100582.78;5010831;28;20053;-72
2023/04/15 01:30:01;;;;;;;23.02;8.65;;;;;;;6.07;84.91;100578.47;5019777;28;20473;-73
2023/04/15 01:32:26;;;;;;;21.15;8.43;;;;;;;6.02;84.81;100584.09;5018439;28;20116;-73
2023/04/15 01:34:52;;;;;;;21.48;8.85;;;;;;;5.98;84.78;100585.22;5018080;28;20405;-72
2023/04/15 01:37:17;;;;;;;22.15;8.77;;;;;;;5.97;85.74;100582.59;5018226;28;20036;-73
2023/04/15 01:39:43;;;;;;;21.27;8.38;;;;;;;5.95;86.64;100577.34;5014523;28;20021;-73
2023/04/15 01:42:08;;;;;;;19.58;8.57;;;;;;;5.94;86.67;100578.28;5022823;28;20029;-73
2023/04/15 01:44:34;;;;;;;20.45;8.13;;;;;;;5.96;86.50;100579.09;5017271;28;20505;-73
2023/04/15 01:46:59;;;;;;;24.75;8.27;;;;;;;5.96;87.00;100576.41;5011801;28;20030;-73
2023/04/15 01:49:24;;;;;;;22.02;8.57;;;;;;;5.98;86.76;100574.53;5021176;28;20104;-73
2023/04/15 01:51:50;;;;;;;21.90;8.60;;;;;;;5.99;86.89;100576.25;5021183;28;20365;-73
2023/04/15 01:54:15;;;;;;;21.80;10.20;;;;;;;5.99;85.98;100578.06;5016516;28;20104;-73
2023/04/15 01:56:41;;;;;;;23.08;8.85;;;;;;;6.02;86.34;100577.88;5021735;28;20042;-72
2023/04/15 01:59:06;;;;;;;18.98;8.15;;;;;;;6.01;87.61;100577.03;5023876;28;20021;-73
2023/04/15 02:01:31;;;;;;;25.95;8.90;;;;;;;6.01;86.64;100579.69;5018740;28;20038;-72
2023/04/15 02:03:57;;;;;;;23.08;9.10;;;;;;;5.99;86.49;100572.72;5020363;28;20021;-72
2023/04/15 02:06:23;;;;;;;21.13;9.20;;;;;;;5.98;86.79;100573.69;5021228;28;20123;-74
2023/04/15 02:08:48;;;;;;;22.88;8.88;;;;;;;5.98;86.63;100574.53;5020251;28;20077;-73
2023/04/15 02:11:14;;;;;;;20.10;8.13;;;;;;;5.95;86.97;100570.19;5019026;28;20489;-73
2023/04/15 02:13:39;;;;;;;20.15;8.68;;;;;;;5.95;86.98;100583.53;5013008;28;20052;-72
2023/04/15 02:16:14;;;;;;;21.23;9.15;;;;;;;5.98;86.88;100576.34;5020750;28;20596;-73
2023/04/15 02:18:40;;;;;;;24.02;10.43;;;;;;;5.92;87.01;100575.72;5021806;28;20453;-73
2023/04/15 02:21:06;;;;;;;24.63;9.45;;;;;;;5.92;87.71;100580.19;5020328;28;20117;-73
2023/04/15 02:23:31;;;;;;;20.92;8.20;;;;;;;5.89;87.46;100586.56;5020171;28;20116;-73
2023/04/15 02:25:56;;;;;;;19.80;8.90;;;;;;;5.90;87.34;100590.09;5021669;28;20030;-73
2023/04/15 02:28:22;;;;;;;22.95;9.57;;;;;;;5.87;87.47;100583.13;5020654;28;20021;-73
2023/04/15 02:30:51;;;;;;;19.27;8.88;;;;;;;5.84;87.81;100593.13;5019163;28;20385;-73
2023/04/15 02:33:17;;;;;;;20.80;7.85;;;;;;;5.84;87.74;100602.00;5019583;28;20041;-73
2023/04/15 02:35:44;;;;;;;28.65;9.48;;;;;;;5.81;87.47;100596.81;5022145;28;20029;-73
2023/04/15 02:38:10;;;;;;;22.85;8.60;;;;;;;5.77;87.40;100603.28;5021474;28;20026;-72
2023/04/15 02:40:36;;;;;;;21.58;8.77;;;;;;;5.79;86.89;100601.38;5018889;28;20034;-72
2023/04/15 02:43:01;;;;;;;25.25;9.40;;;;;;;5.76;87.07;100602.41;5013678;28;20033;-73
2023/04/15 02:45:27;;;;;;;20.27;8.10;;;;;;;5.72;87.02;100605.34;5021573;28;20081;-74
2023/04/15 02:47:53;;;;;;;20.88;9.23;;;;;;;5.69;87.82;100610.84;5025868;28;20087;-73
2023/04/15 02:50:18;;;;;;;19.48;8.52;;;;;;;5.69;87.56;100605.53;5018195;28;20033;-73
2023/04/15 02:52:44;;;;;;;20.73;8.93;;;;;;;5.67;86.16;100610.94;5019320;28;20037;-73
2023/04/15 02:55:09;;;;;;;20.65;9.57;;;;;;;5.67;86.62;100612.75;5020898;28;20175;-73
2023/04/15 02:57:39;;;;;;;24.67;9.02;;;;;;;5.67;87.60;100608.28;5024542;28;20057;-72
2023/04/15 03:00:08;;;;;;;22.00;9.00;;;;;;;5.62;87.67;100621.00;5022094;28;20224;-73
2023/04/15 03:02:35;;;;;;;23.98;10.57;;;;;;;5.60;87.46;100612.22;5017954;28;20087;-72
2023/04/15 03:05:00;;;;;;;20.40;9.30;;;;;;;5.56;87.34;100622.22;5016593;28;20439;-72
2023/04/15 03:07:25;;;;;;;22.95;9.73;;;;;;;5.52;87.60;100615.34;5025305;28;20107;-73
2023/04/15 03:09:51;;;;;;;20.50;9.07;;;;;;;5.48;88.02;100613.78;5023935;28;20049;-73
2023/04/15 03:12:16;;;;;;;21.35;9.40;;;;;;;5.46;88.31;100617.47;5022858;28;20075;-72
2023/04/15 03:14:42;;;;;;;23.33;8.75;;;;;;;5.42;88.62;100616.78;5023452;28;20112;-73
2023/04/15 03:17:07;;;;;;;22.40;8.98;;;;;;;5.38;88.77;100623.25;5020160;28;20030;-73
2023/04/15 03:19:32;;;;;;;22.00;8.68;;;;;;;5.33;88.61;100610.16;5021892;28;20520;-73
2023/04/15 03:21:57;;;;;;;20.95;9.57;;;;;;;5.30;88.79;100620.13;5019298;28;20038;-72
2023/04/15 03:24:23;;;;;;;21.48;9.82;;;;;;;5.21;88.90;100630.38;5018369;28;20029;-72
2023/04/15 03:26:49;;;;;;;23.77;9.55;;;;;;;5.16;88.58;100631.56;5022322;28;20441;-72
2023/04/15 03:29:14;;;;;;;21.75;8.55;;;;;;;5.15;90.03;100633.34;5020225;28;20034;-73
2023/04/15 03:31:40;;;;;;;20.15;9.27;;;;;;;5.10;90.08;100635.41;5024986;28;20088;-73
2023/04/15 03:34:06;;;;;;;21.50;9.50;;;;;;;5.08;90.20;100639.94;5013816;28;20032;-73
2023/04/15 03:36:34;;;;;;;21.10;8.98;;;;;;;5.04;90.49;100641.91;5024851;28;20497;-73
2023/04/15 03:39:00;;;;;;;25.15;10.10;;;;;;;5.02;90.75;100637.59;5022728;28;20052;-73
2023/04/15 03:41:27;;;;;;;24.38;10.43;;;;;;;4.98;90.76;100642.25;5022698;28;20056;-73
2023/04/15 03:43:52;;;;;;;20.52;8.82;;;;;;;4.98;91.39;100644.03;5011923;28;20022;-73
2023/04/15 03:46:18;;;;;;;20.48;8.85;;;;;;;4.93;91.19;100643.44;5021945;28;20409;-72
2023/04/15 03:48:43;;;;;;;20.45;8.52;;;;;;;4.91;90.94;100646.19;5018523;28;20101;-73
2023/04/15 03:51:08;;;;;;;21.55;9.43;;;;;;;4.89;91.11;100651.59;5024098;28;20025;-73
2023/04/15 03:53:34;;;;;;;22.15;10.10;;;;;;;4.86;90.76;100649.09;5018563;28;20485;-72
2023/04/15 03:55:59;;;;;;;22.90;9.93;;;;;;;4.86;91.11;100653.53;5022741;28;20048;-73
2023/04/15 03:58:25;;;;;;;25.65;10.18;;;;;;;4.86;91.43;100658.84;5015425;28;20486;-73
2023/04/15 04:00:50;;;;;;;21.23;9.27;;;;;;;4.83;90.98;100659.03;5009514;28;20030;-73
2023/04/15 04:03:16;;;;;;;21.08;9.80;;;;;;;4.81;91.04;100661.78;5014532;28;20440;-73
2023/04/15 04:05:42;;;;;;;20.83;9.20;;;;;;;4.78;91.46;100667.25;5016614;28;20040;-72
2023/04/15 04:08:08;;;;;;;22.73;10.35;;;;;;;4.73;91.92;100672.81;5021924;28;20041;-72
2023/04/15 04:10:33;;;;;;;22.50;9.52;;;;;;;4.72;91.64;100672.91;5020774;28;20445;-73
2023/04/15 04:12:58;;;;;;;22.70;9.57;;;;;;;4.69;91.81;100681.06;5019502;28;20036;-73
2023/04/15 04:15:24;;;;;;;22.80;10.20;;;;;;;4.67;91.89;100682.91;5020072;28;20400;-72
2023/04/15 04:17:50;;;;;;;24.00;9.68;;;;;;;4.66;92.05;100686.53;5024335;28;20450;-72
2023/04/15 04:20:15;;;;;;;22.00;10.65;;;;;;;4.68;92.26;100689.97;5019700;28;20518;-73
2023/04/15 04:22:41;;;;;;;22.35;10.63;;;;;;;4.67;93.28;100693.56;5010930;28;20037;-72
2023/04/15 04:25:08;;;;;;;21.25;10.23;;;;;;;4.65;93.06;100698.13;5012412;28;20530;-73
2023/04/15 04:27:34;;;;;;;24.70;9.85;;;;;;;4.67;93.39;100699.78;5019124;28;20112;-73
2023/04/15 04:30:00;;;;;;;23.50;10.35;;;;;;;4.68;93.24;100709.47;5014737;28;20556;-72
2023/04/15 04:32:25;;;;;;;21.65;10.20;;;;;;;4.69;93.47;100705.00;5020996;28;20104;-73
2023/04/15 04:34:51;;;;;;;25.83;10.77;;;;;;;4.69;93.49;100710.34;5011226;28;20109;-73
2023/04/15 04:37:16;;;;;;;22.95;9.48;;;;;;;4.70;93.71;100714.69;5017594;28;20508;-72
2023/04/15 04:39:41;;;;;;;23.40;10.27;;;;;;;4.75;93.23;100710.03;5018799;28;20231;-72
2023/04/15 04:42:06;;;;;;;21.70;10.02;;;;;;;4.80;93.65;100715.09;5022784;28;20115;-73
2023/04/15 04:44:32;;;;;;;25.23;11.10;;;;;;;4.81;93.38;100717.69;5016132;28;20432;-73
2023/04/15 04:46:57;;;;;;;24.42;10.35;;;;;;;4.83;93.51;100723.81;5020398;28;20029;-73
2023/04/15 04:49:22;;;;;;;23.58;11.50;;;;;;;4.85;93.26;100732.56;5015185;28;20420;-72
2023/04/15 04:51:48;;;;;;;23.73;10.38;;;;;;;4.85;93.17;100732.56;5023170;28;20021;-72
2023/04/15 04:54:13;;;;;;;22.63;9.98;;;;;;;4.86;93.65;100734.31;5020546;28;20034;-72
2023/04/15 04:56:38;;;;;;;25.80;11.00;;;;;;;4.89;93.56;100739.47;5023579;28;20124;-73
2023/04/15 04:59:04;;;;;;;22.98;11.52;;;;;;;4.89;93.40;100749.25;5019505;28;20025;-73
2023/04/15 05:01:29;;;;;;;21.55;10.32;;;;;;;4.92;93.58;100741.13;5011496;28;20460;-72
2023/04/15 05:03:55;;;;;;;25.50;10.15;;;;;;;4.95;93.23;100740.97;5023601;28;20123;-72
2023/04/15 05:06:20;;;;;;;21.75;10.32;;;;;;;5.00;93.32;100752.22;5018423;28;20500;-71
2023/04/15 05:08:46;;;;;;;23.45;10.85;;;;;;;5.05;93.66;100757.31;5021935;28;20117;-72
2023/04/15 05:11:11;;;;;;;22.83;10.88;;;;;;;5.09;93.26;100758.88;5023396;28;20026;-72
2023/04/15 05:13:37;;;;;;;22.52;9.88;;;;;;;5.11;93.24;100757.00;5016606;28;20045;-72
2023/04/15 05:16:04;;;;;;;22.75;11.20;;;;;;;5.12;93.86;100766.69;5016954;28;20025;-72
2023/04/15 05:18:29;;;;;;;20.83;9.02;;;;;;;5.16;93.55;100773.59;5014759;28;20053;-73
2023/04/15 05:20:55;;;;;;;23.60;10.23;;;;;;;5.17;93.69;100775.34;5016183;28;20053;-73
2023/04/15 05:23:20;;;;;;;24.40;11.52;;;;;;;5.24;93.85;100781.19;5009051;28;20056;-73
2023/04/15 05:25:45;;;;;;;22.67;9.80;;;;;;;5.27;93.64;100782.84;5012672;28;20065;-72
2023/04/15 05:28:11;;;;;;;23.13;10.85;;;;;;;5.30;93.44;100788.88;5017506;28;20044;-73
2023/04/15 05:30:36;;;;;;;22.15;10.70;;;;;;;5.33;93.33;100794.06;5014723;28;20018;-73
2023/04/15 05:33:02;;;;;;;20.50;10.00;;;;;;;5.34;93.67;100794.91;5008032;28;20022;-72
2023/04/15 05:35:28;;;;;;;26.40;11.52;;;;;;;5.38;93.15;100799.13;5017107;28;20049;-73
2023/04/15 05:37:53;;;;;;;22.95;11.55;;;;;;;5.40;93.37;100805.22;5016401;28;20060;-73
2023/04/15 05:40:19;;;;;;;26.80;11.32;;;;;;;5.41;93.29;100809.63;5019297;28;20427;-73
2023/04/15 05:42:44;;;;;;;23.30;10.73;;;;;;;5.42;93.09;100804.22;5012041;28;20041;-73
2023/04/15 05:45:10;;;;;;;23.40;10.35;;;;;;;5.45;92.94;100810.31;5012085;28;20141;-73
2023/04/15 05:47:36;;;;;;;22.85;11.10;;;;;;;5.47;92.92;100825.28;5011033;28;20504;-73
2023/04/15 05:50:02;;;;;;;25.67;11.70;;;;;;;5.49;93.21;100820.75;5017649;28;20500;-72
2023/04/15 05:52:27;;;;;;;27.98;9.88;;;;;;;5.50;93.39;100830.47;5017575;28;20025;-72
2023/04/15 05:54:52;;;;;;;23.10;11.50;;;;;;;5.51;93.35;100834.00;5014588;28;20497;-73
2023/04/15 05:57:18;;;;;;;26.30;11.70;;;;;;;5.54;92.86;100834.69;5017265;28;20029;-72
2023/04/15 05:59:43;;;;;;;22.35;10.88;;;;;;;5.56;93.27;100835.50;5019230;28;20143;-73
2023/04/15 06:02:09;;;;;;;23.20;11.25;;;;;;;5.58;93.00;100838.94;5012249;28;20030;-73
2023/04/15 06:04:35;;;;;;;25.88;12.57;;;;;;;5.64;92.89;100847.53;5016077;28;20030;-73
2023/04/15 06:07:01;;;;;;;21.80;11.10;;;;;;;5.66;92.77;100853.66;5020295;28;20397;-73
2023/04/15 06:09:27;;;;;;;24.83;11.00;;;;;;;5.70;92.68;100857.91;5014335;28;20128;-73
2023/04/15 06:11:53;;;;;;;26.50;11.75;;;;;;;5.74;92.68;100860.31;5013748;28;20033;-72
2023/04/15 06:14:18;;;;;;;23.52;11.73;;;;;;;5.79;93.46;100860.06;5007278;28;20393;-73
2023/04/15 06:16:43;;;;;;;23.90;11.90;;;;;;;5.85;93.67;100865.06;5012738;28;20033;-73
2023/04/15 06:19:09;;;;;;;22.77;12.55;;;;;;;5.90;93.67;100871.03;5014875;28;20037;-73
2023/04/15 06:21:34;;;;;;;22.58;10.35;;;;;;;5.97;93.25;100876.03;5015458;28;20431;-73
2023/04/15 06:24:00;;;;;;;27.75;12.18;;;;;;;6.02;92.79;100876.66;5021880;28;20033;-74
2023/04/15 06:26:26;;;;;;;24.27;11.85;;;;;;;6.09;92.63;100878.06;5022373;28;20033;-73
2023/04/15 06:28:51;;;;;;;22.40;11.05;;;;;;;6.17;92.68;100877.66;5014894;28;20052;-73
2023/04/15 06:31:16;;;;;;;25.75;12.63;;;;;;;6.22;92.42;100883.59;5016246;28;20461;-73
2023/04/15 06:33:42;;;;;;;29.33;12.02;;;;;;;6.31;92.53;100885.78;5025937;28;20025;-73
2023/04/15 06:36:07;;;;;;;24.45;12.13;;;;;;;6.38;92.84;100891.63;5016271;28;20403;-73
2023/04/15 06:38:32;;;;;;;23.20;12.07;;;;;;;6.43;92.69;100889.59;5022032;28;20048;-73
2023/04/15 06:40:57;;;;;;;26.80;12.43;;;;;;;6.50;91.89;100901.66;5024052;28;20084;-73
2023/04/15 06:43:23;;;;;;;24.75;12.43;;;;;;;6.57;91.96;100905.66;5020341;28;20037;-73
2023/04/15 06:45:48;;;;;;;25.65;12.57;;;;;;;6.62;90.50;100911.63;5022451;28;20041;-73
2023/04/15 06:48:14;;;;;;;23.35;11.40;;;;;;;6.66;90.66;100912.31;5020867;28;20537;-73
2023/04/15 06:50:40;;;;;;;24.10;12.23;;;;;;;6.72;91.21;100916.44;5023995;28;20028;-73
2023/04/15 06:53:05;;;;;;;22.52;10.15;;;;;;;6.75;89.65;100916.28;5021701;28;20048;-73
2023/04/15 06:55:31;;;;;;;22.90;10.82;;;;;;;6.80;90.63;100920.41;5022995;28;20357;-74
2023/04/15 06:57:56;;;;;;;23.73;11.80;;;;;;;6.85;90.41;100928.16;5015314;28;20037;-73
2023/04/15 07:00:22;;;;;;;22.50;10.52;;;;;;;6.89;89.55;100934.22;5024980;28;20037;-73
2023/04/15 07:02:47;;;;;;;25.33;11.25;;;;;;;6.92;89.50;100937.56;5018387;28;20033;-73
2023/04/15 07:05:13;;;;;;;23.88;11.40;;;;;;;6.97;89.67;100931.97;5017173;28;20037;-73
2023/04/15 07:07:38;;;;;;;22.45;9.90;;;;;;;7.04;89.88;100943.16;5017350;28;20107;-73
2023/04/15 07:10:04;;;;;;;22.85;10.63;;;;;;;7.07;89.58;100942.97;5012077;28;20021;-72
2023/04/15 07:12:29;;;;;;;24.75;10.77;;;;;;;7.13;89.73;100945.28;5008384;28;20441;-73
2023/04/15 07:14:55;;;;;;;24.65;10.70;;;;;;;7.19;90.01;100955.66;5024437;28;20033;-73
2023/04/15 07:17:20;;;;;;;23.92;10.75;;;;;;;7.26;89.91;100948.13;5021541;28;20030;-74
2023/04/15 07:19:46;;;;;;;21.17;9.52;;;;;;;7.33;89.69;100962.88;5018534;28;20108;-72
2023/04/15 07:22:11;;;;;;;23.08;10.82;;;;;;;7.41;90.84;100962.41;5021647;28;20033;-73
2023/04/15 07:24:37;;;;;;;23.92;11.88;;;;;;;7.47;89.96;100964.75;5015000;28;20040;-73
2023/04/15 07:27:03;;;;;;;23.10;11.02;;;;;;;7.55;89.87;100970.50;5027288;28;20040;-73
2023/04/15 07:29:28;;;;;;;25.33;11.90;;;;;;;7.61;89.78;100972.81;5018127;28;20036;-73
2023/04/15 07:31:55;;;;;;;23.20;11.10;;;;;;;7.67;89.37;100976.94;5020873;28;20021;-73
2023/04/15 07:34:20;;;;;;;22.48;11.23;;;;;;;7.75;89.13;100980.03;5023713;28;20033;-73
2023/04/15 07:36:49;;;;;;;25.50;13.15;;;;;;;7.83;89.38;100985.81;5023504;28;20066;-73
2023/04/15 07:39:15;;;;;;;26.52;12.68;;;;;;;7.92;89.75;100989.75;5020979;28;20037;-73
2023/04/15 07:41:40;;;;;;;21.88;11.70;;;;;;;8.00;89.43;100987.44;5016068;28;20442;-73
2023/04/15 07:44:06;;;;;;;23.48;11.60;;;;;;;8.04;87.50;100991.66;5015960;28;20115;-73
2023/04/15 07:46:31;;;;;;;25.95;11.77;;;;;;;8.10;89.36;100990.44;5022897;28;20044;-73
2023/04/15 07:48:59;;;;;;;23.85;12.25;;;;;;;8.18;88.21;101000.66;5023174;28;20036;-73
2023/04/15 07:51:24;;;;;;;21.63;10.10;;;;;;;8.25;86.53;101002.03;5022319;28;20030;-74
2023/04/15 07:53:50;;;;;;;24.10;10.80;;;;;;;8.31;85.37;101012.34;5019096;28;20105;-72
2023/04/15 07:56:15;;;;;;;21.60;9.15;;;;;;;8.36;85.17;101010.25;5022381;28;20065;-73
2023/04/15 07:58:41;;;;;;;25.45;10.95;;;;;;;8.42;83.20;101005.47;5018039;28;20033;-74
2023/04/15 08:01:07;;;;;;;20.17;8.73;;;;;;;8.47;83.54;101014.97;5016221;28;20026;-73
2023/04/15 08:03:32;;;;;;;21.73;9.38;;;;;;;8.51;82.17;101019.19;5013525;28;20048;-73
2023/04/15 08:05:58;;;;;;;19.80;8.18;;;;;;;8.60;82.96;101019.59;5023026;28;20018;-73
2023/04/15 08:08:24;;;;;;;21.20;9.52;;;;;;;8.66;83.83;101028.09;5021791;28;20516;-74
2023/04/15 08:10:51;;;;;;;20.42;9.02;;;;;;;8.73;83.00;101033.94;5017969;28;20125;-73
2023/04/15 08:13:16;;;;;;;20.10;8.48;;;;;;;8.79;84.42;101038.06;5024590;28;20161;-74
2023/04/15 08:15:42;;;;;;;21.35;8.38;;;;;;;8.84;83.05;101035.94;5014083;28;20033;-73
2023/04/15 08:18:07;;;;;;;22.05;8.60;;;;;;;8.92;83.21;101041.69;5019333;28;20422;-73
2023/04/15 08:20:32;;;;;;;23.23;7.70;;;;;;;8.97;81.51;101047.59;5022601;28;20095;-73
2023/04/15 08:22:58;;;;;;;19.80;8.27;;;;;;;9.02;80.50;101050.88;5019267;28;20025;-73
2023/04/15 08:25:23;;;;;;;21.00;8.27;;;;;;;9.09;82.30;101051.31;5019380;28;20042;-74
2023/04/15 08:27:48;;;;;;;20.27;8.43;;;;;;;9.15;81.42;101058.13;5020174;28;20041;-74
2023/04/15 08:30:14;;;;;;;20.75;8.80;;;;;;;9.22;81.94;101057.63;5013100;28;20029;-73
2023/04/15 08:32:41;;;;;;;26.35;9.75;;;;;;;9.30;81.48;101061.63;5016205;28;20032;-73
2023/04/15 08:35:07;;;;;;;21.48;9.63;;;;;;;9.36;81.35;101061.25;5017563;28;20125;-73
2023/04/15 08:37:32;;;;;;;22.73;9.85;;;;;;;9.40;82.15;101066.31;5017152;28;20112;-73
2023/04/15 08:39:57;;;;;;;22.90;8.45;;;;;;;9.48;83.22;101065.81;5005291;28;20079;-73
2023/04/15 08:42:30;;;;;;;21.52;8.38;;;;;;;9.56;81.56;101070.66;5020420;28;20060;-74
2023/04/15 08:44:59;;;;;;;21.13;8.68;;;;;;;9.61;79.20;101080.13;5019858;28;20018;-74
2023/04/15 08:47:28;;;;;;;21.57;8.77;;;;;;;9.68;79.61;101079.72;5021484;28;20117;-74
2023/04/15 08:49:54;;;;;;;23.85;9.45;;;;;;;9.76;78.45;101089.00;5019982;28;20048;-74
2023/04/15 08:52:20;;;;;;;21.27;7.90;;;;;;;9.82;76.96;101092.25;5018953;28;20038;-73
2023/04/15 08:54:46;;;;;;;17.88;6.22;;;;;;;9.89;75.73;101096.25;5022357;28;20021;-73
2023/04/15 08:57:13;;;;;;;18.48;6.78;;;;;;;9.92;74.04;101104.94;5022259;28;20030;-74
2023/04/15 08:59:39;;;;;;;19.70;6.88;;;;;;;9.99;74.61;101109.94;5020560;28;20036;-74
2023/04/15 09:02:04;;;;;;;19.90;7.25;;;;;;;10.07;77.32;101110.25;5015448;28;20026;-73
2023/04/15 09:04:30;;;;;;;17.63;6.03;;;;;;;10.13;75.89;101107.16;5020821;28;20432;-74
2023/04/15 09:06:56;;;;;;;18.10;5.75;;;;;;;10.21;73.42;101125.47;5021499;28;20068;-74
2023/04/15 09:09:21;;;;;;;16.67;4.93;;;;;;;10.25;69.63;101122.47;5022280;28;20109;-74
2023/04/15 09:11:48;;;;;;;16.23;4.70;;;;;;;10.28;68.51;101124.09;5013457;28;20033;-74
2023/04/15 09:14:14;;;;;;;13.80;4.85;;;;;;;10.30;68.04;101132.88;5020291;28;20091;-73
2023/04/15 09:16:58;;;;;;;16.83;5.70;;;;;;;10.41;73.13;101132.19;5019968;28;20025;-74
2023/04/15 09:19:24;;;;;;;17.58;5.65;;;;;;;10.49;72.17;101141.44;5023326;28;20044;-73
2023/04/15 09:21:55;;;;;;;14.77;5.32;;;;;;;10.52;69.32;101148.44;5019790;28;20034;-74
2023/04/15 09:24:21;;;;;;;15.52;5.30;;;;;;;10.49;68.67;101146.81;5023124;28;20029;-74
2023/04/15 09:26:47;;;;;;;16.70;5.40;;;;;;;10.50;69.51;101153.06;5023113;28;20052;-73
2023/04/15 09:29:12;;;;;;;17.98;6.03;;;;;;;10.54;69.95;101156.41;5018148;28;20422;-74
2023/04/15 09:31:39;;;;;;;16.83;5.97;;;;;;;10.59;70.43;101168.56;5020076;28;20076;-74
2023/04/15 09:34:05;;;;;;;16.63;5.25;;;;;;;10.59;67.09;101167.72;5018215;28;20021;-74
2023/04/15 09:36:46;;;;;;;14.88;4.85;;;;;;;10.64;70.87;101170.94;5009761;28;20116;-74
2023/04/15 09:39:12;;;;;;;18.42;5.82;;;;;;;10.70;72.21;101165.13;5019308;28;20037;-73
2023/04/15 09:41:37;;;;;;;15.52;4.95;;;;;;;10.71;67.47;101172.22;5017836;28;20087;-74
2023/04/15 09:44:03;;;;;;;18.25;5.20;;;;;;;10.73;67.43;101170.31;5019329;28;20021;-73
2023/04/15 09:46:45;;;;;;;14.60;5.30;;;;;;;10.76;67.90;101167.41;5017814;28;20111;-74
2023/04/15 09:49:11;;;;;;;15.73;5.30;;;;;;;10.78;67.12;101168.16;5022808;28;20017;-74
2023/04/15 09:51:37;;;;;;;15.60;4.53;;;;;;;10.86;68.78;101173.00;5016170;28;20473;-74
2023/04/15 09:54:03;;;;;;;12.95;4.18;;;;;;;10.96;68.99;101179.44;5022191;28;20057;-74
2023/04/15 09:56:40;;;;;;;14.18;4.60;;;;;;;11.04;67.50;101173.56;5020890;28;20358;-73
2023/04/15 09:59:09;;;;;;;18.73;5.43;;;;;;;11.08;66.41;101184.94;5018685;28;20098;-73
2023/04/15 10:01:35;;;;;;;15.90;4.85;;;;;;;11.12;68.42;101187.31;5020234;28;20030;-73
2023/04/15 10:04:04;;;;;;;16.38;4.40;;;;;;;11.21;68.87;101185.81;5019311;28;20608;-73
2023/04/15 10:06:30;;;;;;;12.73;4.27;;;;;;;11.22;66.36;101195.59;5017497;28;20524;-73
2023/04/15 10:08:57;;;;;;;13.35;3.88;;;;;;;11.29;69.53;101194.19;5022516;28;20041;-74
2023/04/15 10:11:23;;;;;;;13.02;4.63;;;;;;;11.36;69.66;101200.00;5015090;28;20021;-73
2023/04/15 10:13:50;;;;;;;15.38;4.20;;;;;;;11.36;67.19;101211.63;5023350;28;20578;-74
2023/04/15 10:16:19;;;;;;;15.60;4.70;;;;;;;11.33;66.67;101201.09;5019547;28;20030;-74
2023/04/15 10:18:46;;;;;;;15.07;5.43;;;;;;;11.34;66.84;101199.25;5016514;28;20049;-74
2023/04/15 10:21:15;;;;;;;18.15;5.40;;;;;;;11.39;69.02;101199.81;5022109;28;20042;-73
2023/04/15 10:23:41;;;;;;;15.80;4.63;;;;;;;11.42;69.84;101204.97;5022370;28;20148;-73
2023/04/15 10:26:07;;;;;;;17.33;5.18;;;;;;;11.47;69.55;101205.47;5018451;28;20397;-74
2023/04/15 10:28:33;;;;;;;15.38;5.50;;;;;;;11.51;69.12;101203.44;5018849;28;20422;-73
2023/04/15 10:31:00;;;;;;;13.77;4.45;;;;;;;11.50;67.75;101205.25;5020332;28;20112;-73
2023/04/15 10:33:26;;;;;;;15.07;4.75;;;;;;;11.57;67.08;101207.50;5021013;28;20029;-74
2023/04/15 10:35:54;;;;;;;12.68;4.25;;;;;;;11.61;66.92;101212.59;5022065;28;20365;-74
2023/04/15 10:38:32;;;;;;;16.40;4.20;;;;;;;11.64;65.22;101219.56;5018250;28;20032;-74
2023/04/15 10:41:20;;;;;;;11.32;3.78;;;;;;;11.65;64.93;101222.13;5017652;28;20045;-74
2023/04/15 10:43:49;;;;;;;16.23;5.05;;;;;;;11.69;66.51;101218.25;5015970;28;20526;-74
2023/04/15 10:46:19;;;;;;;15.15;4.65;;;;;;;11.73;64.71;101216.22;5020263;28;20354;-73
2023/04/15 10:48:52;;;;;;;16.25;4.90;;;;;;;11.78;66.19;101222.13;5019865;28;20044;-73
2023/04/15 10:51:29;;;;;;;17.25;5.07;;;;;;;11.81;66.43;101219.19;5018641;28;20036;-74
2023/04/15 10:54:00;;;;;;;13.75;4.40;;;;;;;11.86;66.67;101219.72;5022137;28;20025;-74
2023/04/15 10:56:27;;;;;;;16.60;4.05;;;;;;;11.91;65.41;101222.09;5020675;28;20025;-74
2023/04/15 10:58:53;;;;;;;16.83;4.18;;;;;;;11.92;62.83;101228.31;5007365;28;20496;-73
2023/04/15 11:01:22;;;;;;;11.95;3.67;;;;;;;11.86;61.07;101235.91;5013937;28;20018;-73
2023/04/15 11:03:47;;;;;;;9.70;3.67;;;;;;;11.80;60.32;101235.47;5018703;28;20514;-73
2023/04/15 11:06:13;;;;;;;13.90;3.88;;;;;;;11.77;61.04;101236.56;5017459;28;20026;-74
2023/04/15 11:09:04;;;;;;;15.82;4.13;;;;;;;11.78;62.90;101227.50;5020047;28;20054;-73
2023/04/15 11:12:08;;;;;;;15.30;4.30;;;;;;;11.79;61.96;101241.84;5021721;28;20026;-73
2023/04/15 11:14:40;;;;;;;12.73;4.03;;;;;;;11.83;64.03;101224.47;5019618;28;20025;-73
2023/04/15 11:17:06;;;;;;;10.40;3.75;;;;;;;11.91;64.63;101235.56;5015157;28;20021;-73
2023/04/15 11:19:37;;;;;;;13.52;4.10;;;;;;;11.97;63.79;101231.59;5021003;28;20041;-73